Time,TemperatureF,DewpointF,PressureIn,WindDirection,WindDirectionDegrees,WindSpeedMPH,WindSpeedGustMPH,Humidity,HourlyPrecipIn,Conditions,Clouds,dailyrainin,SoftwareType,DateUTC
2013-08-03 00:01:00,76.6,60.7,29.88,ESE,112,2.3,2.3,58,0.00,RA,OVC,0.00,WeatherDisplay:10.37,2013-08-03 04:01:00,
2013-08-03 00:02:00,76.6,60.7,29.88,North,360,1.1,1.1,58,0.00,RA,OVC,0.00,WeatherDisplay:10.37,2013-08-03 04:02:00,
2013-08-03 00:03:00,76.5,60.6,29.88,SE,135,2.3,2.3,58,0.00,RA,OVC,0.00,WeatherDisplay:10.37,2013-08-03 04:03:00,
2013-08-03 00:08:00,76.5,60.6,29.88,SSW,202,3.5,3.5,58,0.00,RA,OVC,0.00,WeatherDisplay:10.37,2013-08-03 04:08:00,
2013-08-03 00:14:00,76.5,60.6,29.87,SW,225,2.3,2.3,58,0.00,CLR,OVC,0.00,WeatherDisplay:10.37,2013-08-03 04:14:00,
2013-08-03 00:19:00,76.3,60.4,29.87,WNW,292,2.7,2.7,58,0.00,CLR,OVC,0.00,WeatherDisplay:10.37,2013-08-03 04:19:00,
2013-08-03 00:24:00,76.1,60.2,29.87,West,270,4.6,5.2,58,0.00,CLR,OVC,0.00,WeatherDisplay:10.37,2013-08-03 04:24:00,
2013-08-03 00:29:00,76.1,60.2,29.87,ESE,112,2.3,2.3,58,0.00,CLR,OVC,0.00,WeatherDisplay:10.37,2013-08-03 04:29:00,
2013-08-03 00:34:00,76.1,60.2,29.87,South,180,2.3,2.3,58,0.00,CLR,OVC,0.00,WeatherDisplay:10.37,2013-08-03 04:34:00,
2013-08-03 00:39:00,76.1,60.2,29.87,ESE,112,2.3,2.3,58,0.00,CLR,OVC,0.00,WeatherDisplay:10.37,2013-08-03 04:39:00,
2013-08-03 00:44:00,76.1,60.2,29.87,SW,225,2.3,2.3,58,0.00,CLR,OVC,0.00,WeatherDisplay:10.37,2013-08-03 04:44:00,
2013-08-03 00:49:00,75.9,60.1,29.87,WSW,248,3.5,3.5,58,0.00,CLR,OVC,0.00,WeatherDisplay:10.37,2013-08-03 04:49:00,
2013-08-03 00:54:00,75.9,60.1,29.87,NNW,338,2.3,2.3,58,0.00,CLR,OVC,0.00,WeatherDisplay:10.37,2013-08-03 04:54:00,
2013-08-03 00:59:00,75.7,59.9,29.87,West,270,2.3,2.7,58,0.00,CLR,OVC,0.00,WeatherDisplay:10.37,2013-08-03 04:59:00,
2013-08-03 01:05:00,75.6,59.8,29.87,SSW,202,2.3,2.3,58,0.00,CLR,OVC,0.00,WeatherDisplay:10.37,2013-08-03 05:05:00,
2013-08-03 01:10:00,75.6,59.8,29.87,WSW,248,1.1,1.1,58,0.00,CLR,OVC,0.00,WeatherDisplay:10.37,2013-08-03 05:10:00,
2013-08-03 01:15:00,75.6,59.3,29.87,SSW,202,2.7,2.7,57,0.00,CLR,OVC,0.00,WeatherDisplay:10.37,2013-08-03 05:15:00,
2013-08-03 01:20:00,75.2,59.4,29.87,SW,225,0.0,0.0,58,0.00,CLR,OVC,0.00,WeatherDisplay:10.37,2013-08-03 05:20:00,
2013-08-03 01:25:00,75.0,59.7,29.86,ENE,68,2.3,2.3,59,0.00,CLR,OVC,0.00,WeatherDisplay:10.37,2013-08-03 05:25:00,
2013-08-03 01:30:00,74.8,59.5,29.86,ESE,112,0.0,0.0,59,0.00,CLR,OVC,0.00,WeatherDisplay:10.37,2013-08-03 05:30:00,
2013-08-03 01:35:00,74.7,59.4,29.86,ESE,112,2.2,2.2,59,0.00,CLR,OVC,0.00,WeatherDisplay:10.37,2013-08-03 05:35:00,
2013-08-03 01:40:00,74.5,60.2,29.86,SSE,158,2.3,2.3,61,0.00,CLR,OVC,0.00,WeatherDisplay:10.37,2013-08-03 05:40:00,
2013-08-03 01:45:00,74.5,60.6,29.86,WSW,248,2.3,2.3,62,0.00,CLR,OVC,0.00,WeatherDisplay:10.37,2013-08-03 05:45:00,
2013-08-03 01:50:00,74.3,60.9,29.86,ESE,112,2.3,2.3,63,0.00,CLR,OVC,0.00,WeatherDisplay:10.37,2013-08-03 05:50:00,
2013-08-03 01:56:00,73.9,61.0,29.86,ESE,112,1.1,1.1,64,0.00,CLR,OVC,0.00,WeatherDisplay:10.37,2013-08-03 05:56:00,
2013-08-03 02:01:00,73.8,61.3,29.86,SSE,158,2.2,2.2,65,0.00,CLR,OVC,0.00,WeatherDisplay:10.37,2013-08-03 06:01:00,
2013-08-03 02:06:00,73.6,61.5,29.86,ESE,112,2.3,2.3,66,0.00,CLR,OVC,0.00,WeatherDisplay:10.37,2013-08-03 06:06:00,
2013-08-03 02:11:00,73.4,61.8,29.86,SE,135,1.7,1.7,67,0.00,CLR,OVC,0.00,WeatherDisplay:10.37,2013-08-03 06:11:00,
2013-08-03 02:16:00,73.4,63.0,29.85,ESE,112,3.5,3.5,70,0.00,CLR,OVC,0.00,WeatherDisplay:10.37,2013-08-03 06:16:00,
2013-08-03 02:21:00,73.2,63.2,29.85,ESE,112,2.7,2.7,71,0.00,CLR,OVC,0.00,WeatherDisplay:10.37,2013-08-03 06:21:00,
2013-08-03 02:26:00,73.0,63.0,29.85,ESE,112,2.7,2.7,71,0.00,CLR,OVC,0.00,WeatherDisplay:10.37,2013-08-03 06:26:00,
2013-08-03 02:32:00,72.9,62.9,29.85,SE,135,0.0,0.0,71,0.00,CLR,OVC,0.00,WeatherDisplay:10.37,2013-08-03 06:32:00,
2013-08-03 02:37:00,72.7,62.8,29.84,South,180,1.1,1.1,71,0.00,CLR,OVC,0.00,WeatherDisplay:10.37,2013-08-03 06:37:00,
2013-08-03 02:42:00,72.5,62.6,29.84,East,90,0.0,0.0,71,0.00,CLR,OVC,0.00,WeatherDisplay:10.37,2013-08-03 06:42:00,
2013-08-03 02:47:00,72.5,62.6,29.84,ESE,112,1.1,1.1,71,0.00,CLR,OVC,0.00,WeatherDisplay:10.37,2013-08-03 06:47:00,
2013-08-03 02:52:00,72.5,62.2,29.84,SE,135,3.5,3.5,70,0.00,CLR,OVC,0.00,WeatherDisplay:10.37,2013-08-03 06:52:00,
2013-08-03 02:57:00,72.7,62.3,29.84,WNW,292,2.3,0.0,70,0.00,CLR,OVC,0.00,WeatherDisplay:10.37,2013-08-03 06:57:00,
2013-08-03 03:02:00,72.7,62.3,29.85,SE,135,3.5,3.5,70,0.00,CLR,OVC,0.00,WeatherDisplay:10.37,2013-08-03 07:02:00,
2013-08-03 03:07:00,72.7,62.3,29.85,SSE,158,2.3,2.5,70,0.00,CLR,OVC,0.00,WeatherDisplay:10.37,2013-08-03 07:07:00,
2013-08-03 03:12:00,72.7,62.3,29.84,South,180,0.0,0.0,70,0.00,CLR,OVC,0.00,WeatherDisplay:10.37,2013-08-03 07:12:00,
2013-08-03 03:17:00,72.7,62.3,29.84,ESE,112,0.0,0.0,70,0.00,CLR,OVC,0.00,WeatherDisplay:10.37,2013-08-03 07:17:00,
2013-08-03 03:23:00,72.9,62.5,29.84,ESE,112,4.6,4.6,70,0.00,CLR,OVC,0.00,WeatherDisplay:10.37,2013-08-03 07:23:00,
2013-08-03 03:28:00,72.9,62.5,29.83,SE,135,2.3,2.5,70,0.00,CLR,OVC,0.00,WeatherDisplay:10.37,2013-08-03 07:28:00,
2013-08-03 03:33:00,72.9,62.5,29.83,ESE,112,2.7,2.7,70,0.00,CLR,OVC,0.00,WeatherDisplay:10.37,2013-08-03 07:33:00,
2013-08-03 03:38:00,72.9,62.1,29.83,ESE,112,2.2,2.2,69,0.00,CLR,OVC,0.00,WeatherDisplay:10.37,2013-08-03 07:38:00,
2013-08-03 03:43:00,72.9,62.1,29.83,SE,135,2.3,2.3,69,0.00,CLR,OVC,0.00,WeatherDisplay:10.37,2013-08-03 07:43:00,
2013-08-03 03:48:00,72.9,61.3,29.84,SE,135,2.7,2.7,67,0.00,CLR,OVC,0.00,WeatherDisplay:10.37,2013-08-03 07:48:00,
2013-08-03 03:53:00,72.9,60.9,29.84,West,270,3.5,3.5,66,0.00,CLR,OVC,0.00,WeatherDisplay:10.37,2013-08-03 07:53:00,
2013-08-03 03:58:00,72.9,60.9,29.84,WNW,292,2.3,2.3,66,0.00,CLR,OVC,0.00,WeatherDisplay:10.37,2013-08-03 07:58:00,
2013-08-03 04:03:00,72.9,60.0,29.83,ESE,112,2.2,2.2,64,0.00,CLR,OVC,0.00,WeatherDisplay:10.37,2013-08-03 08:03:00,
2013-08-03 04:08:00,72.9,60.0,29.83,WSW,248,4.2,4.2,64,0.00,CLR,OVC,0.00,WeatherDisplay:10.37,2013-08-03 08:08:00,
2013-08-03 04:14:00,72.9,59.6,29.84,SSE,158,3.5,3.5,63,0.00,CLR,OVC,0.00,WeatherDisplay:10.37,2013-08-03 08:14:00,
2013-08-03 04:19:00,73.0,59.2,29.84,East,90,1.7,1.7,62,0.00,CLR,OVC,0.00,WeatherDisplay:10.37,2013-08-03 08:19:00,
2013-08-03 04:27:00,73.0,59.2,29.84,South,180,2.3,0.0,62,0.00,CLR,OVC,0.00,WeatherDisplay:10.37,2013-08-03 08:27:00,
2013-08-03 04:32:00,73.2,59.4,29.84,SE,135,2.2,2.2,62,0.00,CLR,OVC,0.00,WeatherDisplay:10.37,2013-08-03 08:32:00,
2013-08-03 04:37:00,73.2,59.4,29.83,SE,135,2.3,2.3,62,0.00,CLR,OVC,0.00,WeatherDisplay:10.37,2013-08-03 08:37:00,
2013-08-03 04:42:00,73.2,59.8,29.83,SE,135,2.7,2.7,63,0.00,CLR,OVC,0.00,WeatherDisplay:10.37,2013-08-03 08:42:00,
2013-08-03 04:47:00,73.2,59.8,29.84,East,90,3.5,3.5,63,0.00,CLR,OVC,0.00,WeatherDisplay:10.37,2013-08-03 08:47:00,
2013-08-03 04:52:00,73.2,59.8,29.84,SE,135,2.3,2.3,63,0.00,CLR,OVC,0.00,WeatherDisplay:10.37,2013-08-03 08:52:00,
2013-08-03 04:57:00,73.2,59.8,29.84,East,90,2.3,2.3,63,0.00,CLR,OVC,0.00,WeatherDisplay:10.37,2013-08-03 08:57:00,
2013-08-03 05:02:00,73.2,59.8,29.84,ESE,112,4.6,4.6,63,0.00,CLR,OVC,0.00,WeatherDisplay:10.37,2013-08-03 09:02:00,
2013-08-03 05:07:00,73.2,59.8,29.84,ENE,68,3.5,3.5,63,0.00,CLR,OVC,0.00,WeatherDisplay:10.37,2013-08-03 09:07:00,
2013-08-03 05:13:00,73.2,60.3,29.85,SSE,158,3.5,3.5,64,0.00,CLR,OVC,0.00,WeatherDisplay:10.37,2013-08-03 09:13:00,
2013-08-03 05:18:00,73.2,60.7,29.85,SE,135,3.5,3.5,65,0.00,CLR,OVC,0.00,WeatherDisplay:10.37,2013-08-03 09:18:00,
2013-08-03 05:23:00,73.2,60.7,29.85,ESE,112,3.5,3.5,65,0.00,CLR,OVC,0.00,WeatherDisplay:10.37,2013-08-03 09:23:00,
2013-08-03 05:28:00,73.2,61.2,29.85,SSE,158,2.7,2.7,66,0.00,CLR,OVC,0.00,WeatherDisplay:10.37,2013-08-03 09:28:00,
2013-08-03 05:33:00,73.2,61.2,29.85,North,360,2.3,2.3,66,0.00,CLR,OVC,0.00,WeatherDisplay:10.37,2013-08-03 09:33:00,
2013-08-03 05:38:00,73.2,61.2,29.84,ESE,112,3.5,3.5,66,0.00,CLR,OVC,0.00,WeatherDisplay:10.37,2013-08-03 09:38:00,
2013-08-03 05:43:00,73.2,61.2,29.84,ESE,112,1.7,1.7,66,0.00,CLR,OVC,0.00,WeatherDisplay:10.37,2013-08-03 09:43:00,
2013-08-03 05:48:00,73.2,61.2,29.85,NNW,338,2.3,2.3,66,0.00,CLR,OVC,0.00,WeatherDisplay:10.37,2013-08-03 09:48:00,
2013-08-03 05:53:00,73.2,61.6,29.85,SE,135,2.3,2.3,67,0.00,CLR,OVC,0.00,WeatherDisplay:10.37,2013-08-03 09:53:00,
2013-08-03 05:58:00,73.2,61.6,29.85,SSE,158,2.3,2.3,67,0.00,CLR,OVC,0.00,WeatherDisplay:10.37,2013-08-03 09:58:00,
2013-08-03 06:04:00,73.2,61.6,29.85,SW,225,0.0,0.0,67,0.00,CLR,OVC,0.00,WeatherDisplay:10.37,2013-08-03 10:04:00,
2013-08-03 06:09:00,73.2,61.6,29.85,ENE,68,1.7,1.7,67,0.00,CLR,OVC,0.00,WeatherDisplay:10.37,2013-08-03 10:09:00,
2013-08-03 06:14:00,73.2,62.0,29.85,East,90,0.0,0.0,68,0.00,CLR,OVC,0.00,WeatherDisplay:10.37,2013-08-03 10:14:00,
2013-08-03 06:19:00,73.2,62.0,29.85,South,180,2.3,2.3,68,0.00,CLR,OVC,0.00,WeatherDisplay:10.37,2013-08-03 10:19:00,
2013-08-03 06:24:00,73.2,62.0,29.85,ESE,112,2.2,2.2,68,0.00,CLR,OVC,0.00,WeatherDisplay:10.37,2013-08-03 10:24:00,
2013-08-03 06:29:00,73.4,62.2,29.85,SSE,158,2.3,2.3,68,0.00,CLR,OVC,0.00,WeatherDisplay:10.37,2013-08-03 10:29:00,
2013-08-03 06:34:00,73.4,62.2,29.85,WSW,248,1.1,1.1,68,0.00,CLR,OVC,0.00,WeatherDisplay:10.37,2013-08-03 10:34:00,
2013-08-03 06:39:00,73.4,62.2,29.85,ESE,112,2.2,2.2,68,0.00,CLR,OVC,0.00,WeatherDisplay:10.37,2013-08-03 10:39:00,
2013-08-03 06:44:00,73.4,62.2,29.85,ESE,112,2.3,2.3,68,0.00,CLR,OVC,0.00,WeatherDisplay:10.37,2013-08-03 10:44:00,
2013-08-03 06:49:00,73.6,62.4,29.86,South,180,2.3,2.3,68,0.00,CLR,OVC,0.00,WeatherDisplay:10.37,2013-08-03 10:49:00,
2013-08-03 06:55:00,73.6,62.4,29.86,ESE,112,2.7,2.7,68,0.00,CLR,OVC,0.00,WeatherDisplay:10.37,2013-08-03 10:55:00,
2013-08-03 06:59:00,73.6,62.4,29.86,SW,225,2.3,2.3,68,0.00,CLR,OVC,0.00,WeatherDisplay:10.37,2013-08-03 10:59:00,
2013-08-03 07:05:00,73.6,62.4,29.86,SSW,202,0.0,0.0,68,0.00,CLR,OVC,0.00,WeatherDisplay:10.37,2013-08-03 11:05:00,
2013-08-03 07:10:00,73.6,62.4,29.86,ESE,112,1.1,1.9,68,0.00,CLR,OVC,0.00,WeatherDisplay:10.37,2013-08-03 11:10:00,
2013-08-03 07:15:00,73.8,62.6,29.86,ESE,112,2.3,2.3,68,0.00,CLR,OVC,0.00,WeatherDisplay:10.37,2013-08-03 11:15:00,
2013-08-03 07:20:00,73.9,62.7,29.86,West,270,0.0,0.0,68,0.00,CLR,OVC,0.00,WeatherDisplay:10.37,2013-08-03 11:20:00,
2013-08-03 07:25:00,73.9,62.2,29.86,SW,225,2.7,2.7,67,0.00,CLR,OVC,0.00,WeatherDisplay:10.37,2013-08-03 11:25:00,
2013-08-03 07:30:00,74.1,62.4,29.86,SW,225,3.5,3.5,67,0.00,CLR,OVC,0.00,WeatherDisplay:10.37,2013-08-03 11:30:00,
2013-08-03 07:35:00,74.1,62.4,29.86,South,180,1.7,1.7,67,0.00,CLR,OVC,0.00,WeatherDisplay:10.37,2013-08-03 11:35:00,
2013-08-03 07:40:00,74.1,62.9,29.86,NNW,338,5.8,5.8,68,0.00,CLR,OVC,0.00,WeatherDisplay:10.37,2013-08-03 11:40:00,
2013-08-03 07:46:00,74.1,62.9,29.86,SSE,158,3.2,3.2,68,0.00,CLR,OVC,0.00,WeatherDisplay:10.37,2013-08-03 11:46:00,
2013-08-03 07:51:00,74.1,62.9,29.86,WSW,248,3.5,3.5,68,0.00,CLR,OVC,0.00,WeatherDisplay:10.37,2013-08-03 11:51:00,
2013-08-03 07:56:00,74.1,62.9,29.86,SSW,202,2.3,2.3,68,0.00,CLR,OVC,0.00,WeatherDisplay:10.37,2013-08-03 11:56:00,
2013-08-03 08:01:00,74.1,62.9,29.86,SW,225,2.3,2.3,68,0.00,CLR,OVC,0.00,WeatherDisplay:10.37,2013-08-03 12:01:00,
2013-08-03 08:06:00,74.1,62.9,29.86,West,270,2.3,2.3,68,0.00,CLR,OVC,0.00,WeatherDisplay:10.37,2013-08-03 12:06:00,
2013-08-03 08:11:00,74.1,62.9,29.86,West,270,2.7,2.7,68,0.00,CLR,OVC,0.00,WeatherDisplay:10.37,2013-08-03 12:11:00,
2013-08-03 08:16:00,74.3,61.8,29.85,West,270,3.5,3.5,65,0.00,CLR,OVC,0.00,WeatherDisplay:10.37,2013-08-03 12:16:00,
2013-08-03 08:22:00,74.3,61.8,29.85,West,270,3.2,3.2,65,0.00,CLR,OVC,0.00,WeatherDisplay:10.37,2013-08-03 12:22:00,
2013-08-03 08:27:00,74.5,62.0,29.86,SE,135,0.0,0.0,65,0.00,CLR,OVC,0.00,WeatherDisplay:10.37,2013-08-03 12:27:00,
2013-08-03 08:32:00,74.7,62.1,29.86,NW,315,2.3,2.3,65,0.00,CLR,OVC,0.00,WeatherDisplay:10.37,2013-08-03 12:32:00,
2013-08-03 08:37:00,74.7,62.1,29.86,SW,225,0.0,0.0,65,0.00,CLR,OVC,0.00,WeatherDisplay:10.37,2013-08-03 12:37:00,
2013-08-03 08:42:00,74.5,62.4,29.86,West,270,2.3,2.3,66,0.00,CLR,OVC,0.00,WeatherDisplay:10.37,2013-08-03 12:42:00,
2013-08-03 08:47:00,74.5,62.4,29.86,NNW,338,2.3,2.3,66,0.00,CLR,OVC,0.00,WeatherDisplay:10.37,2013-08-03 12:47:00,
2013-08-03 08:52:00,74.3,62.2,29.87,SSW,202,2.3,2.5,66,0.00,CLR,OVC,0.00,WeatherDisplay:10.37,2013-08-03 12:52:00,
2013-08-03 08:57:00,74.1,62.0,29.87,WNW,292,3.5,3.5,66,0.00,CLR,OVC,0.00,WeatherDisplay:10.37,2013-08-03 12:57:00,
2013-08-03 09:02:00,73.9,61.8,29.87,SW,225,2.3,2.3,66,0.00,CLR,OVC,0.00,WeatherDisplay:10.37,2013-08-03 13:02:00,
2013-08-03 09:07:00,73.9,61.4,29.87,SW,225,2.3,2.3,65,0.00,CLR,OVC,0.00,WeatherDisplay:10.37,2013-08-03 13:07:00,
2013-08-03 09:13:00,73.9,61.4,29.88,SSW,202,4.6,4.6,65,0.00,CLR,OVC,0.00,WeatherDisplay:10.37,2013-08-03 13:13:00,
2013-08-03 09:18:00,73.8,60.9,29.88,WNW,292,3.5,3.5,64,0.00,CLR,OVC,0.00,WeatherDisplay:10.37,2013-08-03 13:18:00,
2013-08-03 09:23:00,73.8,61.3,29.88,ENE,68,3.5,3.5,65,0.00,CLR,OVC,0.00,WeatherDisplay:10.37,2013-08-03 13:23:00,
2013-08-03 09:28:00,73.8,61.3,29.88,SW,225,3.2,3.2,65,0.00,CLR,OVC,0.00,WeatherDisplay:10.37,2013-08-03 13:28:00,
2013-08-03 09:33:00,73.4,61.3,29.88,ESE,112,4.6,4.6,66,0.00,CLR,OVC,0.00,WeatherDisplay:10.37,2013-08-03 13:33:00,
2013-08-03 09:38:00,73.6,61.5,29.87,SE,135,3.7,3.7,66,0.00,CLR,OVC,0.00,WeatherDisplay:10.37,2013-08-03 13:38:00,
2013-08-03 09:43:00,73.4,61.3,29.87,NE,45,5.8,5.8,66,0.00,CLR,OVC,0.00,WeatherDisplay:10.37,2013-08-03 13:43:00,
2013-08-03 09:48:00,73.6,61.5,29.87,South,180,6.9,6.9,66,0.00,CLR,OVC,0.00,WeatherDisplay:10.37,2013-08-03 13:48:00,
2013-08-03 09:53:00,73.8,61.7,29.87,SW,225,4.6,4.6,66,0.00,CLR,OVC,0.00,WeatherDisplay:10.37,2013-08-03 13:53:00,
2013-08-03 09:58:00,73.6,62.0,29.87,NE,45,3.5,3.5,67,0.00,CLR,OVC,0.00,WeatherDisplay:10.37,2013-08-03 13:58:00,
2013-08-03 10:04:00,73.6,62.0,29.86,South,180,3.5,3.5,67,0.00,CLR,OVC,0.00,WeatherDisplay:10.37,2013-08-03 14:04:00,
2013-08-03 10:09:00,73.4,61.8,29.86,WNW,292,3.5,3.5,67,0.00,CLR,OVC,0.00,WeatherDisplay:10.37,2013-08-03 14:09:00,
2013-08-03 10:14:00,73.2,62.0,29.88,WSW,248,5.8,5.8,68,0.00,CLR,OVC,0.00,WeatherDisplay:10.37,2013-08-03 14:14:00,
2013-08-03 10:19:00,72.9,63.3,29.88,NW,315,2.3,2.3,72,0.00,CLR,OVC,0.00,WeatherDisplay:10.37,2013-08-03 14:19:00,
2013-08-03 10:24:00,72.7,63.5,29.88,ESE,112,3.5,3.5,73,0.00,CLR,OVC,0.00,WeatherDisplay:10.37,2013-08-03 14:24:00,
2013-08-03 10:29:00,72.5,63.4,29.88,South,180,4.6,4.6,73,0.00,CLR,OVC,0.00,WeatherDisplay:10.37,2013-08-03 14:29:00,
2013-08-03 10:34:00,72.3,63.5,29.88,ESE,112,6.9,6.9,74,0.00,CLR,OVC,0.00,WeatherDisplay:10.37,2013-08-03 14:34:00,
2013-08-03 10:39:00,72.3,63.9,29.87,SW,225,4.7,4.7,75,0.00,CLR,OVC,0.00,WeatherDisplay:10.37,2013-08-03 14:39:00,
2013-08-03 10:44:00,72.0,64.0,29.87,West,270,5.8,5.8,76,0.00,CLR,OVC,0.00,WeatherDisplay:10.37,2013-08-03 14:44:00,
2013-08-03 10:50:00,72.1,64.1,29.87,ESE,112,3.5,3.5,76,0.00,CLR,OVC,0.00,WeatherDisplay:10.37,2013-08-03 14:50:00,
2013-08-03 10:54:00,72.1,63.7,29.87,West,270,4.6,4.6,75,0.00,CLR,OVC,0.00,WeatherDisplay:10.37,2013-08-03 14:54:00,
2013-08-03 11:00:00,72.1,64.1,29.87,West,270,3.5,3.5,76,0.00,CLR,OVC,0.00,WeatherDisplay:10.37,2013-08-03 15:00:00,
2013-08-03 11:05:00,72.1,64.1,29.87,NW,315,6.9,6.9,76,0.00,CLR,OVC,0.00,WeatherDisplay:10.37,2013-08-03 15:05:00,
2013-08-03 11:10:00,72.3,64.3,29.87,WSW,248,2.3,2.3,76,0.00,CLR,OVC,0.00,WeatherDisplay:10.37,2013-08-03 15:10:00,
2013-08-03 11:15:00,72.1,64.9,29.86,WSW,248,2.7,2.7,78,0.00,CLR,OVC,0.00,WeatherDisplay:10.37,2013-08-03 15:15:00,
2013-08-03 11:20:00,72.3,65.1,29.86,WSW,248,4.6,4.6,78,0.00,CLR,OVC,0.00,WeatherDisplay:10.37,2013-08-03 15:20:00,
2013-08-03 11:25:00,72.0,65.1,29.86,SW,225,4.2,4.2,79,0.00,CLR,OVC,0.00,WeatherDisplay:10.37,2013-08-03 15:25:00,
2013-08-03 11:30:00,71.6,65.1,29.86,SSW,202,5.8,5.8,80,0.00,CLR,OVC,0.00,WeatherDisplay:10.37,2013-08-03 15:30:00,
2013-08-03 11:35:00,71.6,65.5,29.86,West,270,1.1,1.1,81,0.00,CLR,OVC,0.00,WeatherDisplay:10.37,2013-08-03 15:35:00,
2013-08-03 11:40:00,71.6,65.5,29.87,SSW,202,3.5,3.5,81,0.00,CLR,OVC,0.00,WeatherDisplay:10.37,2013-08-03 15:40:00,
2013-08-03 11:45:00,71.8,65.7,29.87,SW,225,4.6,5.1,81,0.00,CLR,OVC,0.00,WeatherDisplay:10.37,2013-08-03 15:45:00,
2013-08-03 11:51:00,71.8,66.0,29.87,East,90,4.7,4.7,82,0.00,CLR,OVC,0.00,WeatherDisplay:10.37,2013-08-03 15:51:00,
2013-08-03 11:56:00,72.1,66.3,29.87,SSE,158,4.7,4.7,82,0.00,CLR,OVC,0.00,WeatherDisplay:10.37,2013-08-03 15:56:00,
2013-08-03 12:01:00,72.1,65.9,29.87,SSW,202,4.6,4.6,81,0.00,CLR,OVC,0.00,WeatherDisplay:10.37,2013-08-03 16:01:00,
2013-08-03 12:06:00,72.1,65.6,29.87,WSW,248,4.6,4.6,80,0.00,CLR,OVC,0.00,WeatherDisplay:10.37,2013-08-03 16:06:00,
2013-08-03 12:11:00,72.3,66.1,29.87,West,270,2.3,2.3,81,0.00,CLR,OVC,0.00,WeatherDisplay:10.37,2013-08-03 16:11:00,
2013-08-03 12:16:00,72.5,66.0,29.87,SW,225,4.6,4.6,80,0.00,CLR,OVC,0.00,WeatherDisplay:10.37,2013-08-03 16:16:00,
2013-08-03 12:21:00,72.9,66.0,29.87,WSW,248,3.5,3.5,79,0.00,CLR,OVC,0.00,WeatherDisplay:10.37,2013-08-03 16:21:00,
2013-08-03 12:27:00,73.0,66.1,29.87,WSW,248,3.5,3.5,79,0.00,CLR,OVC,0.00,WeatherDisplay:10.37,2013-08-03 16:27:00,
2013-08-03 12:32:00,73.2,65.9,29.87,West,270,3.5,3.5,78,0.00,CLR,OVC,0.00,WeatherDisplay:10.37,2013-08-03 16:32:00,
2013-08-03 12:37:00,73.4,66.1,29.86,NNE,22,2.3,2.3,78,0.00,CLR,OVC,0.00,WeatherDisplay:10.37,2013-08-03 16:37:00,
2013-08-03 12:42:00,73.8,66.5,29.86,WSW,248,3.2,3.2,78,0.00,CLR,OVC,0.00,WeatherDisplay:10.37,2013-08-03 16:42:00,
2013-08-03 12:47:00,73.9,66.2,29.86,SE,135,2.7,2.7,77,0.00,CLR,OVC,0.00,WeatherDisplay:10.37,2013-08-03 16:47:00,
2013-08-03 12:52:00,73.9,66.6,29.86,West,270,5.8,5.8,78,0.00,CLR,OVC,0.00,WeatherDisplay:10.37,2013-08-03 16:52:00,
2013-08-03 12:57:00,73.8,66.5,29.86,SSW,202,4.7,4.7,78,0.00,CLR,OVC,0.00,WeatherDisplay:10.37,2013-08-03 16:57:00,
2013-08-03 13:02:00,73.6,66.3,29.87,ESE,112,4.6,4.6,78,0.00,CLR,OVC,0.00,WeatherDisplay:10.37,2013-08-03 17:02:00,
2013-08-03 13:07:00,74.1,66.8,29.87,ESE,112,3.2,3.2,78,0.00,CLR,OVC,0.00,WeatherDisplay:10.37,2013-08-03 17:07:00,
2013-08-03 13:13:00,73.6,67.0,29.87,SE,135,3.5,3.5,80,0.00,CLR,OVC,0.00,WeatherDisplay:10.37,2013-08-03 17:13:00,
2013-08-03 13:17:00,73.2,67.4,29.87,NE,45,3.5,3.5,82,0.00,CLR,OVC,0.00,WeatherDisplay:10.37,2013-08-03 17:17:00,
2013-08-03 13:23:00,73.0,67.2,29.87,ENE,68,5.8,5.8,82,0.00,CLR,OVC,0.00,WeatherDisplay:10.37,2013-08-03 17:23:00,
2013-08-03 13:28:00,73.0,67.2,29.86,ESE,112,3.5,3.5,82,0.00,CLR,OVC,0.00,WeatherDisplay:10.37,2013-08-03 17:28:00,
2013-08-03 13:33:00,73.2,67.4,29.86,ENE,68,3.7,3.7,82,0.00,CLR,OVC,0.00,WeatherDisplay:10.37,2013-08-03 17:33:00,
2013-08-03 13:38:00,73.4,67.2,29.85,SSE,158,4.6,4.6,81,0.00,CLR,OVC,0.00,WeatherDisplay:10.37,2013-08-03 17:38:00,
2013-08-03 13:43:00,72.9,67.1,29.85,ESE,112,5.8,5.8,82,0.00,CLR,OVC,0.00,WeatherDisplay:10.37,2013-08-03 17:43:00,
2013-08-03 13:48:00,73.0,67.2,29.85,SSE,158,3.7,3.7,82,0.00,CLR,OVC,0.00,WeatherDisplay:10.37,2013-08-03 17:48:00,
2013-08-03 13:53:00,73.2,66.7,29.85,SE,135,3.5,3.5,80,0.00,CLR,OVC,0.00,WeatherDisplay:10.37,2013-08-03 17:53:00,
2013-08-03 13:58:00,73.2,66.7,29.85,NE,45,4.6,4.6,80,0.00,CLR,OVC,0.00,WeatherDisplay:10.37,2013-08-03 17:58:00,
2013-08-03 14:04:00,74.3,67.4,29.84,SE,135,5.8,5.8,79,0.00,CLR,OVC,0.00,WeatherDisplay:10.37,2013-08-03 18:04:00,
2013-08-03 14:09:00,74.5,67.6,29.84,East,90,4.6,4.6,79,0.00,CLR,OVC,0.00,WeatherDisplay:10.37,2013-08-03 18:09:00,
2013-08-03 14:14:00,75.2,67.9,29.84,WNW,292,5.8,5.8,78,0.00,CLR,OVC,0.00,WeatherDisplay:10.37,2013-08-03 18:14:00,
2013-08-03 14:19:00,75.6,67.5,29.84,West,270,5.8,5.8,76,0.00,CLR,OVC,0.00,WeatherDisplay:10.37,2013-08-03 18:19:00,
2013-08-03 14:24:00,75.2,66.7,29.85,ESE,112,5.8,5.8,75,0.00,CLR,OVC,0.00,WeatherDisplay:10.37,2013-08-03 18:24:00,
2013-08-03 14:29:00,76.3,67.0,29.85,ENE,68,4.7,4.7,73,0.00,CLR,OVC,0.00,WeatherDisplay:10.37,2013-08-03 18:29:00,
2013-08-03 14:34:00,76.1,66.8,29.85,ESE,112,5.8,5.8,73,0.00,CLR,OVC,0.00,WeatherDisplay:10.37,2013-08-03 18:34:00,
2013-08-03 14:39:00,76.5,66.8,29.85,SE,135,4.6,4.6,72,0.00,CLR,OVC,0.00,WeatherDisplay:10.37,2013-08-03 18:39:00,
2013-08-03 14:44:00,76.6,66.9,29.85,ESE,112,5.8,5.8,72,0.00,CLR,OVC,0.00,WeatherDisplay:10.37,2013-08-03 18:44:00,
2013-08-03 14:50:00,76.1,66.8,29.85,NW,315,5.8,5.8,73,0.00,CLR,OVC,0.00,WeatherDisplay:10.37,2013-08-03 18:50:00,
2013-08-03 14:55:00,77.5,66.5,29.85,WSW,248,7.3,7.3,69,0.00,CLR,OVC,0.00,WeatherDisplay:10.37,2013-08-03 18:55:00,
2013-08-03 15:00:00,77.5,66.9,29.85,SW,225,6.3,6.3,70,0.00,CLR,OVC,0.00,WeatherDisplay:10.37,2013-08-03 19:00:00,
2013-08-03 15:05:00,77.0,67.3,29.85,West,270,8.1,8.1,72,0.00,CLR,OVC,0.00,WeatherDisplay:10.37,2013-08-03 19:05:00,
2013-08-03 15:10:00,77.2,67.1,29.85,East,90,8.1,8.1,71,0.00,CLR,OVC,0.00,WeatherDisplay:10.37,2013-08-03 19:10:00,
2013-08-03 15:15:00,76.3,67.0,29.84,East,90,6.9,6.9,73,0.00,CLR,OVC,0.00,WeatherDisplay:10.37,2013-08-03 19:15:00,
2013-08-03 15:20:00,78.3,67.3,29.84,South,180,5.8,5.8,69,0.00,CLR,OVC,0.00,WeatherDisplay:10.37,2013-08-03 19:20:00,
2013-08-03 15:25:00,78.3,66.9,29.83,SW,225,8.1,8.1,68,0.00,CLR,OVC,0.00,WeatherDisplay:10.37,2013-08-03 19:25:00,
2013-08-03 15:30:00,79.0,67.1,29.83,ESE,112,6.9,6.9,67,0.00,CLR,OVC,0.00,WeatherDisplay:10.37,2013-08-03 19:30:00,
2013-08-03 15:35:00,78.4,67.4,29.83,SE,135,6.9,6.9,69,0.00,CLR,OVC,0.00,WeatherDisplay:10.37,2013-08-03 19:35:00,
2013-08-03 15:41:00,79.2,66.9,29.83,ENE,68,6.9,6.9,66,0.00,CLR,OVC,0.00,WeatherDisplay:10.37,2013-08-03 19:41:00,
2013-08-03 15:46:00,78.6,66.7,29.83,ESE,112,9.2,9.2,67,0.01,RA,OVC,0.01,WeatherDisplay:10.37,2013-08-03 19:46:00,
2013-08-03 15:51:00,78.8,66.9,29.82,ESE,112,9.9,9.9,67,0.01,RA,OVC,0.01,WeatherDisplay:10.37,2013-08-03 19:51:00,
2013-08-03 15:56:00,79.3,67.0,29.82,SSW,202,3.5,3.5,66,0.01,,OVC,0.01,WeatherDisplay:10.37,2013-08-03 19:56:00,
2013-08-03 16:01:00,79.3,66.5,29.82,NNE,22,5.8,5.8,65,0.01,CLR,OVC,0.01,WeatherDisplay:10.37,2013-08-03 20:01:00,
2013-08-03 16:06:00,80.1,66.8,29.82,North,360,8.1,8.1,64,0.01,CLR,OVC,0.01,WeatherDisplay:10.37,2013-08-03 20:06:00,
2013-08-03 16:11:00,79.2,66.4,29.82,WSW,248,5.8,5.8,65,0.01,CLR,OVC,0.01,WeatherDisplay:10.37,2013-08-03 20:11:00,
2013-08-03 16:17:00,80.1,66.8,29.82,South,180,4.7,4.7,64,0.01,CLR,OVC,0.01,WeatherDisplay:10.37,2013-08-03 20:17:00,
2013-08-03 16:22:00,80.6,66.8,29.82,NE,45,5.3,5.3,63,0.01,CLR,OVC,0.01,WeatherDisplay:10.37,2013-08-03 20:22:00,
2013-08-03 16:27:00,80.6,65.4,29.81,SSE,158,5.8,5.8,60,0.01,CLR,OVC,0.01,WeatherDisplay:10.37,2013-08-03 20:27:00,
2013-08-03 16:32:00,80.6,65.4,29.81,SSW,202,5.8,5.8,60,0.01,CLR,OVC,0.01,WeatherDisplay:10.37,2013-08-03 20:32:00,
2013-08-03 16:37:00,81.0,65.8,29.81,South,180,4.6,4.6,60,0.01,CLR,OVC,0.01,WeatherDisplay:10.37,2013-08-03 20:37:00,
2013-08-03 16:42:00,79.7,64.6,29.81,ENE,68,6.9,6.9,60,0.01,CLR,OVC,0.01,WeatherDisplay:10.37,2013-08-03 20:42:00,
2013-08-03 16:47:00,78.8,64.2,29.81,South,180,4.7,4.7,61,0.00,CLR,OVC,0.01,WeatherDisplay:10.37,2013-08-03 20:47:00,
2013-08-03 16:53:00,78.8,63.7,29.80,SE,135,5.8,5.8,60,0.00,CLR,OVC,0.01,WeatherDisplay:10.37,2013-08-03 20:53:00,
2013-08-03 16:58:00,78.8,64.2,29.80,West,270,4.6,4.6,61,0.00,CLR,OVC,0.01,WeatherDisplay:10.37,2013-08-03 20:58:00,
2013-08-03 17:03:00,78.6,64.5,29.80,NNE,22,3.5,3.5,62,0.00,CLR,OVC,0.01,WeatherDisplay:10.37,2013-08-03 21:03:00,
2013-08-03 17:08:00,78.8,66.5,29.80,NNE,22,3.5,3.5,66,0.00,CLR,OVC,0.01,WeatherDisplay:10.37,2013-08-03 21:08:00,
2013-08-03 17:13:00,79.2,66.4,29.79,SSW,202,5.8,5.8,65,0.00,CLR,OVC,0.01,WeatherDisplay:10.37,2013-08-03 21:13:00,
2013-08-03 17:18:00,79.2,66.0,29.79,ESE,112,8.1,8.1,64,0.00,CLR,OVC,0.01,WeatherDisplay:10.37,2013-08-03 21:18:00,
2013-08-03 17:23:00,79.3,66.5,29.80,SSE,158,5.8,5.8,65,0.00,CLR,OVC,0.01,WeatherDisplay:10.37,2013-08-03 21:23:00,
2013-08-03 17:28:00,79.2,67.3,29.80,NE,45,8.1,8.1,67,0.00,CLR,OVC,0.01,WeatherDisplay:10.37,2013-08-03 21:28:00,
2013-08-03 17:33:00,79.2,67.7,29.80,NNE,22,6.9,6.9,68,0.00,CLR,OVC,0.01,WeatherDisplay:10.37,2013-08-03 21:33:00,
2013-08-03 17:38:00,79.3,67.8,29.80,South,180,5.8,5.8,68,0.00,CLR,OVC,0.01,WeatherDisplay:10.37,2013-08-03 21:38:00,
2013-08-03 17:44:00,78.4,67.4,29.80,East,90,4.6,4.6,69,0.00,CLR,OVC,0.01,WeatherDisplay:10.37,2013-08-03 21:44:00,
2013-08-03 17:49:00,78.6,67.2,29.81,NE,45,4.6,4.6,68,0.00,CLR,OVC,0.01,WeatherDisplay:10.37,2013-08-03 21:49:00,
2013-08-03 17:54:00,79.3,67.0,29.81,ESE,112,3.5,3.5,66,0.00,CLR,OVC,0.01,WeatherDisplay:10.37,2013-08-03 21:54:00,
2013-08-03 17:59:00,79.5,67.6,29.81,East,90,4.6,4.6,67,0.00,CLR,OVC,0.01,WeatherDisplay:10.37,2013-08-03 21:59:00,
2013-08-03 18:04:00,80.1,67.3,29.81,SE,135,4.6,4.6,65,0.00,CLR,OVC,0.01,WeatherDisplay:10.37,2013-08-03 22:04:00,
2013-08-03 18:09:00,79.0,67.1,29.81,West,270,4.7,4.7,67,0.00,CLR,OVC,0.01,WeatherDisplay:10.37,2013-08-03 22:09:00,
2013-08-03 18:14:00,79.3,67.4,29.81,SSE,158,5.8,5.8,67,0.00,CLR,OVC,0.01,WeatherDisplay:10.37,2013-08-03 22:14:00,
2013-08-03 18:19:00,78.8,66.9,29.81,WSW,248,8.1,8.1,67,0.00,CLR,OVC,0.01,WeatherDisplay:10.37,2013-08-03 22:19:00,
2013-08-03 18:24:00,78.8,66.9,29.81,SE,135,9.2,9.2,67,0.00,CLR,OVC,0.01,WeatherDisplay:10.37,2013-08-03 22:24:00,
2013-08-03 18:30:00,78.8,66.5,29.81,SE,135,9.2,9.2,66,0.00,CLR,OVC,0.01,WeatherDisplay:10.37,2013-08-03 22:30:00,
2013-08-03 18:35:00,78.6,66.7,29.81,SSW,202,5.8,5.8,67,0.00,CLR,OVC,0.01,WeatherDisplay:10.37,2013-08-03 22:35:00,
2013-08-03 18:39:00,79.0,66.7,29.81,North,360,2.3,2.3,66,0.00,CLR,OVC,0.01,WeatherDisplay:10.37,2013-08-03 22:39:00,
2013-08-03 18:45:00,78.6,66.3,29.81,West,270,6.9,6.9,66,0.00,CLR,OVC,0.01,WeatherDisplay:10.37,2013-08-03 22:45:00,
2013-08-03 18:50:00,78.8,66.5,29.81,WNW,292,4.6,4.6,66,0.00,CLR,OVC,0.01,WeatherDisplay:10.37,2013-08-03 22:50:00,
2013-08-03 18:55:00,79.5,67.1,29.81,WSW,248,5.8,5.8,66,0.00,CLR,OVC,0.01,WeatherDisplay:10.37,2013-08-03 22:55:00,
2013-08-03 19:00:00,79.7,66.9,29.81,SSE,158,8.3,8.3,65,0.00,CLR,OVC,0.01,WeatherDisplay:10.37,2013-08-03 23:00:00,
2013-08-03 19:05:00,78.4,67.0,29.82,WSW,248,2.7,2.7,68,0.00,CLR,OVC,0.01,WeatherDisplay:10.37,2013-08-03 23:05:00,
2013-08-03 19:10:00,78.1,66.7,29.82,NNE,22,4.7,4.7,68,0.00,CLR,OVC,0.01,WeatherDisplay:10.37,2013-08-03 23:10:00,
2013-08-03 19:15:00,77.5,66.5,29.82,South,180,4.2,4.2,69,0.00,CLR,OVC,0.01,WeatherDisplay:10.37,2013-08-03 23:15:00,
2013-08-03 19:21:00,77.4,66.8,29.82,WNW,292,5.8,5.8,70,0.00,CLR,OVC,0.01,WeatherDisplay:10.37,2013-08-03 23:21:00,
2013-08-03 19:25:00,77.0,66.5,29.82,West,270,6.8,6.8,70,0.00,CLR,OVC,0.01,WeatherDisplay:10.37,2013-08-03 23:25:00,
2013-08-03 19:31:00,76.6,66.1,29.82,ESE,112,4.6,4.6,70,0.00,CLR,OVC,0.01,WeatherDisplay:10.37,2013-08-03 23:31:00,
2013-08-03 19:36:00,76.5,66.4,29.82,SSW,202,2.3,2.3,71,0.00,CLR,OVC,0.01,WeatherDisplay:10.37,2013-08-03 23:36:00,
2013-08-03 19:41:00,76.3,66.2,29.82,NE,45,4.6,4.6,71,0.00,CLR,OVC,0.01,WeatherDisplay:10.37,2013-08-03 23:41:00,
2013-08-03 19:46:00,76.1,66.4,29.82,SE,135,3.5,3.5,72,0.00,CLR,OVC,0.01,WeatherDisplay:10.37,2013-08-03 23:46:00,
2013-08-03 19:51:00,75.7,66.0,29.81,ESE,112,3.5,3.5,72,0.00,CLR,OVC,0.01,WeatherDisplay:10.37,2013-08-03 23:51:00,
2013-08-03 19:57:00,75.6,66.3,29.81,East,90,5.8,5.8,73,0.00,CLR,OVC,0.01,WeatherDisplay:10.37,2013-08-03 23:57:00,
2013-08-03 20:02:00,75.4,66.1,29.81,SSE,158,6.9,6.9,73,0.00,CLR,OVC,0.01,WeatherDisplay:10.37,2013-08-04 00:02:00,
2013-08-03 20:07:00,75.2,66.3,29.81,SE,135,5.8,5.8,74,0.00,CLR,OVC,0.01,WeatherDisplay:10.37,2013-08-04 00:07:00,
2013-08-03 20:12:00,75.0,66.1,29.81,ESE,112,4.6,4.6,74,0.00,CLR,OVC,0.01,WeatherDisplay:10.37,2013-08-04 00:12:00,
2013-08-03 20:17:00,74.8,66.0,29.82,South,180,6.9,6.9,74,0.00,CLR,OVC,0.01,WeatherDisplay:10.37,2013-08-04 00:17:00,
2013-08-03 20:22:00,74.7,65.9,29.82,East,90,4.7,4.7,74,0.00,CLR,OVC,0.01,WeatherDisplay:10.37,2013-08-04 00:22:00,
2013-08-03 20:27:00,74.7,65.9,29.82,SSE,158,4.6,4.6,74,0.00,CLR,OVC,0.01,WeatherDisplay:10.37,2013-08-04 00:27:00,
2013-08-03 20:32:00,74.5,66.1,29.82,East,90,4.7,4.7,75,0.00,CLR,OVC,0.01,WeatherDisplay:10.37,2013-08-04 00:32:00,
2013-08-03 20:37:00,74.5,66.1,29.83,ESE,112,7.3,7.3,75,0.00,CLR,OVC,0.01,WeatherDisplay:10.37,2013-08-04 00:37:00,
2013-08-03 20:43:00,74.3,65.9,29.83,NNW,338,5.8,5.8,75,0.00,CLR,OVC,0.01,WeatherDisplay:10.37,2013-08-04 00:43:00,
2013-08-03 20:48:00,74.3,66.2,29.83,ESE,112,2.3,2.3,76,0.00,CLR,OVC,0.01,WeatherDisplay:10.37,2013-08-04 00:48:00,
2013-08-03 20:53:00,74.1,66.0,29.83,ESE,112,6.9,6.9,76,0.00,CLR,OVC,0.01,WeatherDisplay:10.37,2013-08-04 00:53:00,
2013-08-03 20:58:00,73.9,65.9,29.83,ESE,112,3.7,3.7,76,0.00,CLR,OVC,0.01,WeatherDisplay:10.37,2013-08-04 00:58:00,
2013-08-03 21:03:00,73.9,65.9,29.83,SE,135,3.7,3.7,76,0.00,CLR,OVC,0.01,WeatherDisplay:10.37,2013-08-04 01:03:00,
2013-08-03 21:08:00,73.8,65.8,29.83,ESE,112,0.0,0.0,76,0.00,CLR,OVC,0.01,WeatherDisplay:10.37,2013-08-04 01:08:00,
2013-08-03 21:13:00,73.6,65.9,29.83,ESE,112,2.7,2.7,77,0.00,CLR,OVC,0.01,WeatherDisplay:10.37,2013-08-04 01:13:00,
2013-08-03 21:18:00,73.6,65.9,29.83,West,270,4.2,4.2,77,0.00,CLR,OVC,0.01,WeatherDisplay:10.37,2013-08-04 01:18:00,
2013-08-03 21:24:00,73.4,65.7,29.84,SSE,158,4.6,4.6,77,0.00,CLR,OVC,0.01,WeatherDisplay:10.37,2013-08-04 01:24:00,
2013-08-03 21:29:00,73.4,65.7,29.84,ENE,68,4.6,4.6,77,0.00,CLR,OVC,0.01,WeatherDisplay:10.37,2013-08-04 01:29:00,
2013-08-03 21:34:00,73.4,65.7,29.84,NE,45,2.3,2.3,77,0.00,CLR,OVC,0.01,WeatherDisplay:10.37,2013-08-04 01:34:00,
2013-08-03 21:35:00,73.4,65.7,29.84,East,90,2.2,2.2,77,0.00,CLR,OVC,0.01,WeatherDisplay:10.37,2013-08-04 01:35:00,
2013-08-03 21:40:00,73.4,65.7,29.84,NNE,22,1.7,1.7,77,0.00,CLR,OVC,0.01,WeatherDisplay:10.37,2013-08-04 01:40:00,
2013-08-03 21:45:00,73.2,65.6,29.84,NNE,22,3.5,3.5,77,0.00,CLR,OVC,0.01,WeatherDisplay:10.37,2013-08-04 01:45:00,
2013-08-03 21:51:00,73.2,65.6,29.84,SSE,158,3.5,3.5,77,0.00,CLR,OVC,0.01,WeatherDisplay:10.37,2013-08-04 01:51:00,
2013-08-03 21:56:00,73.2,65.6,29.84,ESE,112,4.6,4.6,77,0.00,CLR,OVC,0.01,WeatherDisplay:10.37,2013-08-04 01:56:00,
2013-08-03 22:01:00,73.2,65.9,29.84,ENE,68,4.6,4.6,78,0.00,CLR,OVC,0.01,WeatherDisplay:10.37,2013-08-04 02:01:00,
2013-08-03 22:06:00,73.0,65.7,29.84,East,90,2.3,2.3,78,0.00,CLR,OVC,0.01,WeatherDisplay:10.37,2013-08-04 02:06:00,
2013-08-03 22:11:00,73.0,65.7,29.84,SE,135,3.5,3.5,78,0.00,CLR,OVC,0.01,WeatherDisplay:10.37,2013-08-04 02:11:00,
2013-08-03 22:16:00,73.0,65.7,29.83,ESE,112,4.6,4.6,78,0.00,CLR,OVC,0.01,WeatherDisplay:10.37,2013-08-04 02:16:00,
2013-08-03 22:21:00,73.0,65.7,29.83,SW,225,2.7,2.7,78,0.00,CLR,OVC,0.01,WeatherDisplay:10.37,2013-08-04 02:21:00,
2013-08-03 22:27:00,73.0,65.7,29.83,East,90,4.6,4.6,78,0.00,CLR,OVC,0.01,WeatherDisplay:10.37,2013-08-04 02:27:00,
2013-08-03 22:32:00,73.2,65.9,29.83,WSW,248,1.1,1.1,78,0.00,CLR,OVC,0.01,WeatherDisplay:10.37,2013-08-04 02:32:00,
2013-08-03 22:37:00,73.4,65.7,29.83,SSW,202,0.0,0.0,77,0.00,CLR,OVC,0.01,WeatherDisplay:10.37,2013-08-04 02:37:00,
2013-08-03 22:42:00,73.4,65.7,29.83,North,360,3.5,3.5,77,0.00,CLR,OVC,0.01,WeatherDisplay:10.37,2013-08-04 02:42:00,
2013-08-03 22:47:00,73.4,65.7,29.83,SE,135,1.1,1.1,77,0.00,CLR,OVC,0.01,WeatherDisplay:10.37,2013-08-04 02:47:00,
2013-08-03 22:52:00,73.4,65.7,29.83,West,270,0.0,0.0,77,0.00,CLR,OVC,0.01,WeatherDisplay:10.37,2013-08-04 02:52:00,
2013-08-03 22:57:00,73.2,65.9,29.83,SW,225,2.3,2.3,78,0.00,CLR,OVC,0.01,WeatherDisplay:10.37,2013-08-04 02:57:00,
2013-08-03 23:03:00,73.2,65.9,29.83,NNE,22,0.0,0.0,78,0.00,CLR,OVC,0.01,WeatherDisplay:10.37,2013-08-04 03:03:00,
2013-08-03 23:07:00,72.9,65.6,29.83,South,180,2.3,2.3,78,0.00,CLR,OVC,0.01,WeatherDisplay:10.37,2013-08-04 03:07:00,
2013-08-03 23:13:00,72.9,65.6,29.83,WSW,248,3.5,3.5,78,0.00,CLR,OVC,0.01,WeatherDisplay:10.37,2013-08-04 03:13:00,
2013-08-03 23:18:00,72.7,65.8,29.83,SW,225,3.7,3.7,79,0.00,CLR,OVC,0.01,WeatherDisplay:10.37,2013-08-04 03:18:00,
2013-08-03 23:23:00,72.7,65.8,29.83,WSW,248,3.5,3.5,79,0.00,CLR,OVC,0.01,WeatherDisplay:10.37,2013-08-04 03:23:00,
2013-08-03 23:28:00,72.7,65.8,29.83,ESE,112,0.0,0.0,79,0.00,CLR,OVC,0.01,WeatherDisplay:10.37,2013-08-04 03:28:00,
2013-08-03 23:33:00,72.5,66.0,29.83,North,360,1.1,0.0,80,0.00,CLR,OVC,0.01,WeatherDisplay:10.37,2013-08-04 03:33:00,
2013-08-03 23:38:00,72.1,65.6,29.83,WSW,248,2.3,2.3,80,0.00,CLR,OVC,0.01,WeatherDisplay:10.37,2013-08-04 03:38:00,
2013-08-03 23:43:00,72.1,65.9,29.83,WNW,292,1.1,1.1,81,0.00,CLR,OVC,0.01,WeatherDisplay:10.37,2013-08-04 03:43:00,
2013-08-03 23:48:00,72.0,65.8,29.83,SSW,202,0.0,0.0,81,0.00,CLR,OVC,0.01,WeatherDisplay:10.37,2013-08-04 03:48:00,
2013-08-03 23:54:00,71.8,65.7,29.83,ESE,112,0.0,0.0,81,0.00,CLR,OVC,0.01,WeatherDisplay:10.37,2013-08-04 03:54:00,
2013-08-03 23:59:00,71.6,65.8,29.83,ESE,112,0.0,0.0,82,0.00,CLR,OVC,0.01,WeatherDisplay:10.37,2013-08-04 03:59:00,